Time;durP1;ratioP1;P1;durP2;ratioP2;P2;SDS_P1;SDS_P2;PMS_P1;PMS_P2;Temp;Humidity;BMP_temperature;BMP_pressure;BME280_temperature;BME280_humidity;BME280_pressure;Samples;Min_cycle;Max_cycle;Signal;HPM_P1;HPM_P2
2022/07/14 00:01:47;;;;;;;2.17;1.60;;;22.70;90.60;;;23.17;69.81;101316.19;5207768;28;20080;-67
2022/07/14 00:04:19;;;;;;;2.08;1.75;;;22.60;90.70;;;23.15;70.00;101307.34;5208024;28;20048;-66
2022/07/14 00:06:52;;;;;;;4.30;2.00;;;22.60;90.90;;;23.10;70.56;101315.38;5207662;28;20037;-66
2022/07/14 00:09:24;;;;;;;5.07;1.88;;;22.60;91.10;;;23.08;70.59;101313.59;5207720;28;20051;-67
2022/07/14 00:11:56;;;;;;;3.65;1.70;;;22.60;91.20;;;23.09;70.50;101323.38;5206320;28;20050;-66
2022/07/14 00:14:28;;;;;;;3.78;2.17;;;22.50;91.30;;;23.06;70.93;101318.06;5189984;28;20148;-67
2022/07/14 00:17:02;;;;;;;2.58;1.73;;;22.50;91.50;;;23.03;70.96;101313.66;5207669;28;20076;-66
2022/07/14 00:19:34;;;;;;;4.32;2.10;;;22.50;91.60;;;22.99;71.08;101299.50;5207298;28;20592;-66
2022/07/14 00:22:06;;;;;;;2.45;1.52;;;22.50;91.70;;;22.98;71.35;101307.50;5207436;28;20048;-67
2022/07/14 00:24:38;;;;;;;3.25;2.00;;;22.40;91.80;;;22.97;71.37;101311.94;5207590;28;20147;-66
2022/07/14 00:27:10;;;;;;;3.63;2.08;;;22.40;92.00;;;22.97;71.54;101303.06;5207160;28;20132;-67
2022/07/14 00:29:43;;;;;;;2.90;1.98;;;22.40;92.10;;;22.96;71.72;101303.97;5189464;28;20069;-66
2022/07/14 00:32:16;;;;;;;3.45;2.30;;;22.40;92.20;;;22.93;71.63;101307.50;5206967;28;20045;-67
2022/07/14 00:34:48;;;;;;;3.00;1.80;;;22.40;92.30;;;22.92;71.91;101300.44;5206725;28;20528;-67
2022/07/14 00:37:20;;;;;;;4.05;2.00;;;22.40;92.50;;;22.91;72.00;101311.97;5206904;28;20046;-66
2022/07/14 00:39:55;;;;;;;2.67;1.67;;;22.30;92.60;;;22.88;72.35;101311.09;5189318;28;20068;-67
2022/07/14 00:42:33;;;;;;;2.42;1.80;;;22.30;92.70;;;22.87;72.48;101312.88;5189423;28;20049;-67
2022/07/14 00:45:09;;;;;;;3.42;1.92;;;22.30;92.80;;;22.86;72.38;101308.47;5189452;28;20055;-67
2022/07/14 00:47:44;;;;;;;2.80;1.90;;;22.30;92.90;;;22.80;72.65;101324.41;5188909;28;20667;-67
2022/07/14 00:50:19;;;;;;;3.45;1.95;;;22.30;93.10;;;22.76;72.96;101317.38;5206978;28;20048;-67
2022/07/14 00:52:51;;;;;;;4.45;2.40;;;22.20;93.20;;;22.75;73.03;101323.56;5204758;28;20141;-67
2022/07/14 00:55:24;;;;;;;3.20;2.00;;;22.20;93.30;;;22.74;73.42;101316.47;5205299;28;20041;-67
2022/07/14 00:57:56;;;;;;;2.10;1.75;;;22.20;93.50;;;22.71;73.47;101316.53;5196945;28;20052;-67
2022/07/14 01:00:30;;;;;;;2.97;1.95;;;22.20;93.60;;;22.72;73.44;101313.84;5188546;28;20475;-67
2022/07/14 01:03:05;;;;;;;3.70;2.40;;;22.20;94.00;;;22.69;73.54;101316.53;5206622;28;20494;-68
2022/07/14 01:05:37;;;;;;;3.13;2.10;;;22.20;93.80;;;22.66;74.19;101318.31;5188949;28;20495;-67
2022/07/14 01:08:10;;;;;;;4.60;2.25;;;22.10;94.00;;;22.61;74.28;101304.19;5206502;28;20033;-66
2022/07/14 01:10:42;;;;;;;2.88;2.10;;;22.10;94.10;;;22.55;74.69;101307.75;5206304;28;20064;-68
2022/07/14 01:13:14;;;;;;;3.42;2.03;;;22.10;94.30;;;22.55;74.71;101307.75;5189226;28;20064;-67
2022/07/14 01:15:47;;;;;;;3.95;2.00;;;22.00;94.50;;;22.52;75.03;101299.81;5188486;28;20656;-67
2022/07/14 01:18:20;;;;;;;2.95;1.90;;;22.00;94.60;;;22.52;75.12;101304.25;5187548;28;20145;-68
2022/07/14 01:20:52;;;;;;;3.72;2.25;;;22.00;94.70;;;22.49;75.39;101310.44;5205652;28;20033;-66
2022/07/14 01:23:26;;;;;;;3.42;2.03;;;22.00;94.90;;;22.44;75.61;101310.50;5184655;28;20115;-66
2022/07/14 01:25:58;;;;;;;3.45;1.77;;;21.90;95.10;;;22.43;75.62;101307.81;5205981;28;20496;-67
2022/07/14 01:28:30;;;;;;;3.00;2.05;;;21.90;95.20;;;22.41;76.02;101304.31;5188271;28;20037;-67
2022/07/14 01:31:03;;;;;;;5.53;2.15;;;21.90;95.30;;;22.39;75.92;101299.00;5205846;28;20567;-66
2022/07/14 01:33:35;;;;;;;3.47;2.20;;;21.90;95.40;;;22.37;76.00;101313.19;5188698;28;20046;-66
2022/07/14 01:36:08;;;;;;;3.75;1.73;;;21.90;95.50;;;22.34;76.18;101308.75;5188540;28;20629;-66
2022/07/14 01:38:41;;;;;;;3.63;2.08;;;21.80;95.60;;;22.34;76.22;101300.78;5205761;28;20051;-66
2022/07/14 01:41:13;;;;;;;2.42;1.75;;;21.80;95.70;;;22.33;76.40;101296.38;5205979;28;20064;-67
2022/07/14 01:43:46;;;;;;;5.40;2.22;;;21.80;95.90;;;22.34;76.44;101289.28;5188131;28;20038;-66
2022/07/14 01:46:18;;;;;;;2.47;1.70;;;21.80;96.00;;;22.32;76.55;101297.28;5205972;28;20130;-67
2022/07/14 01:48:50;;;;;;;3.90;2.03;;;21.80;96.10;;;22.29;76.65;101302.59;5187813;28;20141;-66
2022/07/14 01:51:22;;;;;;;4.50;2.20;;;21.80;96.20;;;22.24;76.82;101299.09;5205802;28;20088;-66
2022/07/14 01:53:56;;;;;;;5.07;2.45;;;21.70;96.30;;;22.23;77.10;101299.09;5188129;28;20510;-68
2022/07/14 01:56:28;;;;;;;3.72;2.10;;;21.70;96.40;;;22.22;77.17;101290.25;5188086;28;20059;-66
2022/07/14 01:59:01;;;;;;;3.60;2.17;;;21.70;96.50;;;22.22;77.19;101308.81;5188057;28;20522;-68
2022/07/14 02:01:42;;;;;;;4.63;2.35;;;21.70;96.60;;;22.20;77.21;101313.28;5187674;28;20071;-68
2022/07/14 02:04:16;;;;;;;2.70;2.05;;;21.70;96.60;;;22.15;77.24;101309.75;5187847;28;20049;-67
2022/07/14 02:06:51;;;;;;;4.40;2.13;;;21.60;96.60;;;22.10;77.52;101303.56;5188129;28;20449;-66
2022/07/14 02:12:47;;;;;;;4.75;2.20;;;21.60;96.90;;;22.02;78.20;101315.97;5187946;28;20453;-68
2022/07/14 02:15:20;;;;;;;6.50;2.38;;;21.60;97.10;;;22.00;78.17;101312.44;5187811;28;20126;-66
2022/07/14 02:17:54;;;;;;;4.90;2.22;;;21.50;97.20;;;21.97;78.40;101308.00;5205335;28;20068;-66
2022/07/14 02:20:27;;;;;;;4.50;2.10;;;21.50;97.30;;;21.93;78.63;101299.19;5187554;28;20038;-67
2022/07/14 02:22:59;;;;;;;4.13;2.25;;;21.50;97.50;;;21.93;78.86;101304.50;5205660;28;20295;-66
2022/07/14 02:25:33;;;;;;;3.40;2.47;;;21.50;97.60;;;21.88;79.29;101311.59;5187856;28;20547;-67
2022/07/14 02:28:06;;;;;;;5.68;2.53;;;21.40;97.80;;;21.87;79.48;101303.66;5178525;28;20050;-66
2022/07/14 02:30:38;;;;;;;3.58;2.10;;;21.40;98.00;;;21.86;79.83;101316.03;5198480;28;20053;-66
2022/07/14 02:33:12;;;;;;;4.13;2.35;;;21.40;98.10;;;21.86;79.98;101300.13;5187797;28;20046;-68
2022/07/14 02:35:45;;;;;;;4.30;2.15;;;21.40;98.30;;;21.88;80.09;101297.44;5205330;28;20124;-66
2022/07/14 02:38:17;;;;;;;3.55;1.92;;;21.40;98.40;;;21.90;80.08;101303.63;5186518;28;20445;-67
2022/07/14 02:40:52;;;;;;;3.80;2.15;;;21.40;98.50;;;21.90;80.10;101295.66;5187314;28;20068;-67
2022/07/14 02:43:26;;;;;;;3.03;2.10;;;21.40;98.50;;;21.89;80.15;101294.78;5199101;28;20434;-67
2022/07/14 02:45:59;;;;;;;6.05;1.92;;;21.40;98.60;;;21.87;80.26;101293.91;5203035;28;20100;-67
2022/07/14 02:48:31;;;;;;;2.90;1.83;;;21.40;98.70;;;21.83;80.36;101291.25;5186886;28;20052;-67
2022/07/14 02:51:07;;;;;;;2.50;2.00;;;21.30;98.70;;;21.79;80.66;101295.72;5203469;28;20095;-66
2022/07/14 02:53:39;;;;;;;2.90;2.05;;;21.30;98.90;;;21.76;80.84;101295.72;5187855;28;20136;-66
2022/07/14 02:56:13;;;;;;;3.88;1.95;;;21.30;99.10;;;21.73;80.97;101293.09;5186730;28;20076;-66
2022/07/14 02:58:46;;;;;;;3.28;1.90;;;21.30;99.20;;;21.69;81.21;101293.97;5187069;28;20080;-67
2022/07/14 03:01:19;;;;;;;4.05;1.80;;;21.20;99.20;;;21.66;81.39;101278.94;5202586;28;20037;-67
2022/07/14 03:03:51;;;;;;;3.35;1.52;;;21.10;99.40;;;21.64;81.71;101279.81;5208514;28;20096;-67
2022/07/14 03:06:24;;;;;;;3.10;1.80;;;21.10;99.60;;;21.60;82.05;101294.88;5206046;28;20498;-67
2022/07/14 03:08:58;;;;;;;3.53;1.83;;;21.10;99.70;;;21.57;82.26;101296.66;5190379;28;20069;-68
2022/07/14 03:11:33;;;;;;;2.63;1.92;;;21.10;99.90;;;21.52;82.53;101304.63;5186055;28;20061;-67
2022/07/14 03:14:05;;;;;;;3.08;2.00;;;21.00;99.90;;;21.50;82.79;101302.84;5197849;28;20038;-68
2022/07/14 03:16:38;;;;;;;4.28;2.13;;;21.00;99.90;;;21.45;83.07;101305.50;5196246;28;20060;-67
2022/07/14 03:19:14;;;;;;;2.92;1.83;;;21.00;99.90;;;21.41;83.22;101303.78;5179490;28;20526;-68
2022/07/14 03:21:49;;;;;;;4.82;1.90;;;20.90;99.90;;;21.40;83.34;101302.88;5179557;28;20030;-67
2022/07/14 03:24:22;;;;;;;5.00;1.88;;;20.90;99.90;;;21.40;83.59;101305.53;5190598;28;20046;-66
2022/07/14 03:26:56;;;;;;;4.40;2.47;;;20.90;99.90;;;21.39;83.62;101306.44;5182441;28;20038;-68
2022/07/14 03:29:28;;;;;;;3.03;2.00;;;20.90;99.90;;;21.37;83.76;101308.19;5179142;28;20241;-67
2022/07/14 03:32:01;;;;;;;4.78;2.13;;;20.90;99.90;;;21.37;83.95;101305.53;5179870;28;20501;-67
2022/07/14 03:34:36;;;;;;;4.28;2.40;;;20.90;99.90;;;21.37;84.16;101307.28;5180563;28;20045;-67
2022/07/14 03:37:09;;;;;;;3.55;2.08;;;20.90;99.90;;;21.38;84.15;101304.63;5178649;28;20057;-66
2022/07/14 03:39:52;;;;;;;4.32;1.85;;;20.90;99.90;;;21.36;84.13;101298.47;5212265;28;20053;-67
2022/07/14 03:42:25;;;;;;;5.13;2.20;;;20.90;99.90;;;21.36;84.28;101305.53;5212084;28;20038;-68
2022/07/14 03:44:58;;;;;;;3.80;2.22;;;20.90;99.90;;;21.33;84.53;101295.84;5198524;28;20049;-67
2022/07/14 03:47:30;;;;;;;3.80;1.98;;;20.80;99.90;;;21.31;84.67;101300.22;5178865;28;20041;-66
2022/07/14 03:50:03;;;;;;;3.95;2.05;;;20.80;99.90;;;21.30;84.84;101290.50;5215387;28;20579;-68
2022/07/14 03:52:37;;;;;;;4.18;2.03;;;20.80;99.90;;;21.29;85.02;101287.88;5181796;28;20092;-67
2022/07/14 03:55:10;;;;;;;5.15;2.00;;;20.80;99.90;;;21.29;84.87;101280.78;5211960;28;20141;-66
2022/07/14 03:57:45;;;;;;;4.82;2.20;;;20.80;99.90;;;21.29;84.93;101278.16;5195210;28;20060;-66
2022/07/14 04:00:18;;;;;;;4.40;2.05;;;20.70;99.90;;;21.29;85.04;101283.44;5179276;28;20095;-67
2022/07/14 04:02:52;;;;;;;;;;;20.80;99.90;;;21.27;85.11;101279.91;5195688;28;20132;-69
2022/07/14 04:05:30;;;;;;;2.60;1.90;;;20.70;99.90;;;21.28;85.23;101275.47;5178901;28;19952;-66
2022/07/14 04:08:10;;;;;;;3.38;1.90;;;20.70;99.90;;;21.27;85.23;101276.38;5186590;28;20525;-67
2022/07/14 04:10:52;;;;;;;5.20;2.00;;;20.70;99.90;;;21.27;85.48;101274.59;5177776;28;20483;-69
2022/07/14 04:13:26;;;;;;;3.38;1.83;;;20.70;99.90;;;21.26;85.45;101272.84;5196509;28;20038;-67
2022/07/14 04:15:58;;;;;;;3.72;2.05;;;20.70;99.90;;;21.25;85.51;101279.00;5209880;28;20104;-66
2022/07/14 04:18:30;;;;;;;3.70;1.88;;;20.70;99.90;;;21.26;85.60;101272.84;5194753;28;20068;-67
2022/07/14 04:21:03;;;;;;;3.47;1.98;;;20.70;99.90;;;21.24;85.69;101285.19;5181132;28;20566;-67
2022/07/14 04:23:37;;;;;;;5.00;2.17;;;20.70;99.90;;;21.23;85.66;101283.41;5199491;28;20038;-67
2022/07/14 04:26:10;;;;;;;3.13;1.65;;;20.70;99.90;;;21.23;85.55;101290.50;5181620;28;20056;-66
2022/07/14 04:28:44;;;;;;;2.78;1.83;;;20.70;99.90;;;21.23;85.94;101282.53;5205069;28;20046;-67
2022/07/14 04:31:16;;;;;;;4.25;1.95;;;20.70;99.90;;;21.23;85.82;101272.81;5207016;28;20427;-67
2022/07/14 04:33:49;;;;;;;6.00;2.10;;;20.70;99.90;;;21.23;85.77;101280.78;5189643;28;20045;-66
2022/07/14 04:36:23;;;;;;;2.95;1.98;;;20.70;99.90;;;21.26;85.87;101272.84;5180880;28;20052;-67
2022/07/14 04:38:56;;;;;;;3.75;2.00;;;20.70;99.90;;;21.26;85.69;101264.88;5175058;28;20048;-67
2022/07/14 04:41:29;;;;;;;3.60;2.05;;;20.70;99.90;;;21.27;85.78;101268.41;5211053;28;20128;-67
2022/07/14 04:44:02;;;;;;;4.20;2.30;;;20.70;99.90;;;21.26;85.78;101288.75;5179105;28;20095;-67
2022/07/14 04:46:35;;;;;;;4.60;2.30;;;20.70;99.90;;;21.26;85.93;101298.47;5183260;28;20524;-68
2022/07/14 04:52:02;;;;;;;4.75;2.10;;;20.70;99.90;;;21.23;86.10;101283.41;5196075;28;20037;-66
2022/07/14 04:54:39;;;;;;;4.03;2.20;;;20.70;99.90;;;21.23;85.90;101294.03;5180658;28;20131;-67
2022/07/14 04:57:19;;;;;;;4.18;2.28;;;20.70;99.90;;;21.24;86.17;101286.94;5181516;28;20064;-66
2022/07/14 04:59:54;;;;;;;4.47;2.22;;;20.70;99.90;;;21.23;86.15;101307.28;5209373;28;20128;-67
2022/07/14 05:02:27;;;;;;;4.55;2.00;;;20.70;99.90;;;21.23;86.40;101294.03;5178758;28;20163;-66
2022/07/14 05:04:59;;;;;;;5.65;2.05;;;20.80;99.90;;;21.25;86.38;101291.38;5183969;28;20038;-67
2022/07/14 05:07:33;;;;;;;4.85;2.10;;;20.80;99.90;;;21.25;86.27;101297.56;5218367;28;20053;-67
2022/07/14 05:10:08;;;;;;;3.30;1.92;;;20.70;99.90;;;21.24;86.32;101294.91;5199686;28;20049;-72
2022/07/14 05:12:43;;;;;;;4.97;2.17;;;20.80;99.90;;;21.23;86.57;101296.69;5185547;28;20037;-67
2022/07/14 05:15:16;;;;;;;4.22;2.00;;;20.70;99.90;;;21.23;86.99;101294.03;5174458;28;20041;-66
2022/07/14 05:17:49;;;;;;;4.38;2.22;;;20.80;99.90;;;21.24;87.24;101289.59;5184721;28;20387;-67
2022/07/14 05:20:22;;;;;;;4.57;2.05;;;20.70;99.90;;;21.25;87.17;101289.59;5188148;28;20063;-66
2022/07/14 05:22:54;;;;;;;5.22;2.25;;;20.70;99.90;;;21.25;87.18;101300.19;5187937;28;20055;-67
2022/07/14 05:25:27;;;;;;;7.90;2.60;;;20.70;99.90;;;21.22;86.88;101294.91;5186916;28;20088;-67
2022/07/14 05:27:59;;;;;;;6.40;2.38;;;20.70;99.90;;;21.19;87.03;101286.06;5188046;28;20482;-67
2022/07/14 05:33:34;;;;;;;5.20;2.15;;;20.70;99.90;;;21.17;87.98;101298.44;5169073;28;20042;-75
2022/07/14 05:36:06;;;;;;;5.25;2.15;;;20.70;99.90;;;21.18;88.09;101290.50;5184036;28;20064;-76
2022/07/14 05:38:39;;;;;;;5.15;2.28;;;20.70;99.90;;;21.18;88.25;101295.78;5184089;28;20053;-75
2022/07/14 05:41:14;;;;;;;5.97;2.20;;;20.70;99.90;;;21.20;88.53;101282.56;5183094;28;20054;-76
2022/07/14 05:43:47;;;;;;;4.88;2.20;;;20.70;99.90;;;21.20;88.60;101278.13;5179935;28;20045;-75
2022/07/14 05:46:20;;;;;;;6.22;2.75;;;20.70;99.90;;;21.20;88.41;101293.16;5143696;28;20059;-75
2022/07/14 05:48:55;;;;;;;4.82;2.38;;;20.70;99.90;;;21.18;88.38;101295.78;5143686;28;20093;-76
2022/07/14 05:51:27;;;;;;;6.05;2.63;;;20.70;99.90;;;21.20;88.02;101298.47;5143637;28;20531;-76
2022/07/14 05:54:00;;;;;;;5.15;2.45;;;20.70;99.90;;;21.20;87.78;101306.41;5143634;28;20053;-76
2022/07/14 05:56:33;;;;;;;7.45;2.25;;;20.70;99.90;;;21.20;87.95;101299.34;5143643;28;20423;-75
2022/07/14 05:59:05;;;;;;;6.32;2.35;;;20.70;99.90;;;21.21;88.06;101290.50;5143493;28;20054;-72
2022/07/14 06:01:38;;;;;;;4.25;2.40;;;20.70;99.90;;;21.20;88.17;101291.41;5143614;28;20046;-73
2022/07/14 06:04:11;;;;;;;9.70;2.85;;;20.70;99.90;;;21.22;88.10;101286.97;5143975;28;20074;-72
2022/07/14 06:06:46;;;;;;;4.63;2.22;;;20.70;99.90;;;21.20;88.17;101285.22;5143738;28;20593;-71
2022/07/14 06:09:19;;;;;;;6.25;2.42;;;20.70;99.90;;;21.23;88.52;101282.53;5143428;28;20039;-72
2022/07/14 06:11:51;;;;;;;5.35;2.33;;;20.70;99.90;;;21.23;88.54;101283.41;5143497;28;20411;-74
2022/07/14 06:14:26;;;;;;;5.95;2.30;;;20.70;99.90;;;21.28;86.58;101289.66;5143820;28;20042;-58
2022/07/14 06:16:58;;;;;;;5.00;2.25;;;20.80;99.90;;;21.46;83.60;101291.38;5143276;28;20051;-58
2022/07/14 06:19:32;;;;;;;6.63;2.30;;;20.90;99.90;;;21.66;81.94;101305.47;5143309;28;20137;-57
2022/07/14 06:22:05;;;;;;;5.68;2.28;;;21.10;99.90;;;21.87;80.25;101304.53;5143502;28;20519;-58
2022/07/14 06:24:41;;;;;;;6.70;2.55;;;21.30;99.90;;;22.05;79.65;101297.38;5127375;28;20508;-58
2022/07/14 06:27:13;;;;;;;4.55;2.22;;;21.50;99.90;;;22.13;79.48;101311.53;5143397;28;20067;-58
2022/07/14 06:29:46;;;;;;;5.30;2.35;;;21.60;99.90;;;22.29;77.80;101307.91;5143431;28;20047;-58
2022/07/14 06:32:18;;;;;;;9.57;2.78;;;21.80;99.70;;;22.44;76.97;101313.16;5145880;28;20046;-56
2022/07/14 06:34:52;;;;;;;5.43;2.70;;;21.90;99.40;;;22.58;75.91;101320.16;5147436;28;20475;-58
2022/07/14 06:37:29;;;;;;;5.63;2.55;;;22.00;98.90;;;22.63;75.87;101315.69;5147274;28;20385;-60
2022/07/14 06:40:04;;;;;;;7.97;2.63;;;22.10;98.70;;;22.65;75.78;101314.78;5147202;28;20054;-59
2022/07/14 06:42:37;;;;;;;8.85;2.85;;;22.20;98.70;;;22.68;75.73;101312.09;5147360;28;20566;-60
2022/07/14 06:45:28;;;;;;;7.72;2.60;;;22.20;98.60;;;22.68;75.72;101317.41;5155290;28;20054;-61
2022/07/14 06:48:01;;;;;;;8.55;2.88;;;22.20;98.50;;;22.63;76.10;101310.38;5160892;28;20422;-56
2022/07/14 06:50:35;;;;;;;7.32;2.85;;;22.20;98.50;;;22.61;76.27;101320.13;5187018;28;20053;-58
2022/07/14 06:53:07;;;;;;;8.35;2.70;;;22.20;98.50;;;22.64;76.26;101321.00;5188360;28;20104;-57
2022/07/14 06:55:40;;;;;;;8.35;3.35;;;22.20;98.50;;;22.70;76.08;101314.75;5188575;28;20056;-58
2022/07/14 06:58:12;;;;;;;9.93;2.72;;;22.20;98.40;;;22.68;76.18;101308.56;5188568;28;20046;-57
2022/07/14 07:00:44;;;;;;;7.82;3.13;;;22.20;98.40;;;22.69;76.71;101312.97;5188350;28;20053;-58
2022/07/14 07:03:16;;;;;;;9.88;2.92;;;22.20;98.60;;;22.69;76.73;101310.31;5187347;28;20318;-57
2022/07/14 07:08:39;;;;;;;7.47;2.70;;;22.20;98.90;;;22.65;77.23;101311.25;5188276;28;20041;-58
2022/07/14 07:11:11;;;;;;;9.38;2.85;;;22.20;98.70;;;22.65;77.03;101311.25;5188265;28;20054;-58
2022/07/14 07:13:44;;;;;;;7.93;2.60;;;22.20;98.60;;;22.70;76.62;101304.13;5188374;28;20080;-72
2022/07/14 07:16:16;;;;;;;6.18;2.42;;;22.20;98.60;;;22.65;77.61;101316.56;5186942;28;20073;-72
2022/07/14 07:18:49;;;;;;;6.50;2.45;;;22.20;98.90;;;22.54;78.67;101318.41;5170371;28;20053;-72
2022/07/14 07:21:22;;;;;;;7.45;2.58;;;22.10;99.20;;;22.38;79.75;101318.50;5186782;28;20041;-74
2022/07/14 07:23:55;;;;;;;6.82;2.45;;;22.00;99.50;;;22.27;80.74;101325.63;5188008;28;20040;-73
2022/07/14 07:26:27;;;;;;;7.80;2.40;;;21.90;99.80;;;22.23;81.62;101322.97;5188187;28;20041;-72
2022/07/14 07:28:59;;;;;;;6.43;2.30;;;21.80;99.90;;;22.26;82.22;101318.56;5188009;28;20120;-72
2022/07/14 07:31:31;;;;;;;6.40;2.17;;;21.80;99.90;;;22.25;81.80;101311.47;5187680;28;20100;-72
2022/07/14 07:34:04;;;;;;;4.13;1.92;;;21.80;99.90;;;22.21;81.83;101313.25;5188019;28;20045;-76
2022/07/14 07:36:39;;;;;;;4.95;2.65;;;21.80;99.90;;;22.17;81.90;101324.81;5187817;28;20053;-73
2022/07/14 07:39:11;;;;;;;5.60;2.47;;;21.70;99.90;;;22.13;82.29;101325.69;5187711;28;20053;-74
2022/07/14 07:41:43;;;;;;;8.40;2.65;;;21.70;99.90;;;22.10;82.32;101327.47;5187488;28;20050;-72
2022/07/14 07:44:15;;;;;;;7.07;2.50;;;21.70;99.90;;;22.05;82.51;101318.63;5187570;28;20512;-72
2022/07/14 07:46:47;;;;;;;6.07;2.65;;;21.60;99.90;;;22.01;83.18;101322.16;5187653;28;20525;-74
2022/07/14 07:49:19;;;;;;;7.32;2.60;;;21.60;99.90;;;22.04;83.59;101327.44;5169998;28;20073;-72
2022/07/14 07:51:58;;;;;;;6.32;2.35;;;21.60;99.90;;;22.07;83.59;101320.38;5187834;28;20438;-72
2022/07/14 07:54:30;;;;;;;6.85;2.50;;;21.60;99.90;;;22.14;83.93;101319.50;5187711;28;20498;-72
2022/07/14 07:57:03;;;;;;;5.72;2.40;;;21.70;99.90;;;22.21;83.52;101307.06;5187347;28;20490;-58
2022/07/14 07:59:35;;;;;;;6.75;2.13;;;21.70;99.90;;;22.34;82.04;101299.91;5187506;28;20077;-59
2022/07/14 08:02:07;;;;;;;6.40;2.55;;;21.70;99.90;;;22.48;80.26;101309.56;5169873;28;20454;-60
2022/07/14 08:04:39;;;;;;;5.00;2.15;;;21.90;99.90;;;22.52;79.44;101297.16;5187554;28;20134;-58
2022/07/14 08:07:13;;;;;;;6.63;2.53;;;21.90;99.90;;;22.60;78.47;101303.28;5187191;28;20115;-57
2022/07/14 08:09:45;;;;;;;6.68;2.10;;;22.00;99.60;;;22.70;77.56;101307.66;5187612;28;20129;-61
2022/07/14 08:12:17;;;;;;;6.85;2.40;;;22.10;99.30;;;22.78;76.97;101310.25;5187257;28;20053;-60
2022/07/14 08:14:49;;;;;;;5.20;2.13;;;22.20;99.10;;;22.88;76.71;101305.78;5187446;28;20038;-61
2022/07/14 08:17:22;;;;;;;10.77;2.63;;;22.30;98.90;;;22.97;75.71;101303.94;5187107;28;20056;-61
2022/07/14 08:19:55;;;;;;;6.93;2.30;;;22.40;98.60;;;23.02;75.25;101303.91;5187075;28;20075;-61
2022/07/14 08:22:30;;;;;;;6.65;2.28;;;22.50;98.40;;;23.08;74.80;101300.28;5187247;28;20070;-62
2022/07/14 08:25:03;;;;;;;6.05;2.28;;;22.50;98.10;;;23.17;73.87;101310.88;5187088;28;20065;-61
2022/07/14 08:27:35;;;;;;;6.82;2.10;;;22.60;97.80;;;23.23;72.69;101316.13;5186651;28;20045;-61
2022/07/14 08:30:09;;;;;;;6.75;2.10;;;22.60;97.30;;;23.32;72.32;101310.72;5186913;28;20052;-62
2022/07/14 08:32:44;;;;;;;5.25;2.03;;;22.70;97.10;;;23.38;71.98;101299.13;5186878;28;20049;-59
2022/07/14 08:35:19;;;;;;;5.72;1.95;;;22.70;97.00;;;23.54;70.89;101298.97;5186956;28;20046;-61
2022/07/14 08:37:54;;;;;;;6.13;2.17;;;22.80;96.60;;;23.65;69.86;101304.19;5186646;28;20053;-60
2022/07/14 08:40:28;;;;;;;6.20;2.10;;;22.90;96.10;;;23.66;69.33;101282.00;5186963;28;20128;-61
2022/07/14 08:43:01;;;;;;;6.05;2.42;;;23.00;95.80;;;23.73;68.84;101289.03;5186532;28;20038;-61
2022/07/14 08:45:42;;;;;;;3.30;1.67;;;23.00;95.60;;;23.79;68.81;101283.63;5186738;28;20473;-63
2022/07/14 08:48:16;;;;;;;4.03;1.50;;;23.10;95.80;;;23.86;67.78;101283.56;5186343;28;20111;-60
2022/07/14 08:50:49;;;;;;;3.83;1.65;;;23.10;95.00;;;23.87;66.22;101283.56;5186659;28;20104;-59
2022/07/14 08:53:22;;;;;;;4.70;1.83;;;23.20;94.20;;;23.85;66.01;101277.34;5186352;28;20042;-60
2022/07/14 08:55:55;;;;;;;5.35;1.52;;;23.20;94.00;;;23.83;65.77;101277.38;5186282;28;20046;-60
2022/07/14 08:58:27;;;;;;;4.15;1.90;;;23.20;93.80;;;23.84;65.65;101272.94;5186133;28;20056;-59
2022/07/14 09:00:59;;;;;;;5.18;1.80;;;23.20;93.70;;;23.94;65.29;101273.72;5186456;28;20387;-60
2022/07/14 09:03:31;;;;;;;6.40;1.75;;;23.20;93.50;;;24.05;65.26;101269.97;5186434;28;20046;-59
2022/07/14 09:06:05;;;;;;;3.67;1.60;;;23.30;93.40;;;24.15;64.02;101267.22;5186414;28;20076;-60
2022/07/14 09:08:56;;;;;;;4.63;1.65;;;23.40;92.80;;;24.29;63.09;101267.91;5186158;28;20062;-61
2022/07/14 09:11:28;;;;;;;5.10;1.60;;;23.50;92.40;;;24.51;61.71;101260.50;5186114;28;20132;-60
2022/07/14 09:14:10;;;;;;;2.20;1.52;;;23.60;91.80;;;24.86;60.84;101262.59;5186063;28;20044;-63
2022/07/14 09:16:42;;;;;;;5.30;1.58;;;23.80;91.30;;;25.04;59.83;101257.00;5186342;28;20042;-61
2022/07/14 09:19:16;;;;;;;3.47;1.60;;;24.00;91.20;;;25.07;59.14;101246.25;5185913;28;20042;-61
2022/07/14 09:21:58;;;;;;;3.78;1.50;;;24.10;90.40;;;25.02;59.08;101253.41;5186112;28;20092;-62
2022/07/14 09:24:31;;;;;;;3.65;1.13;;;24.10;90.00;;;24.95;59.12;101251.78;5185964;28;20785;-61
2022/07/14 09:27:03;;;;;;;5.43;1.95;;;24.10;89.50;;;24.87;59.15;101246.56;5186043;28;20050;-61
2022/07/14 09:29:36;;;;;;;3.38;1.45;;;24.00;89.20;;;24.83;59.44;101242.19;5185791;28;20038;-60
2022/07/14 09:32:08;;;;;;;3.28;1.50;;;24.00;89.00;;;24.83;59.40;101249.31;5185736;28;20046;-61
2022/07/14 09:34:40;;;;;;;4.97;1.65;;;24.00;89.00;;;24.82;59.10;101248.44;5185832;28;20053;-61
2022/07/14 09:37:15;;;;;;;2.78;1.30;;;24.00;88.40;;;24.88;59.01;101245.66;5185713;28;20105;-60
2022/07/14 09:39:56;;;;;;;4.60;1.50;;;24.00;88.60;;;24.94;59.19;101246.47;5185747;28;20042;-60
2022/07/14 09:42:50;;;;;;;4.57;1.50;;;24.00;88.50;;;25.01;58.82;101251.66;5185674;28;20398;-61
2022/07/14 09:45:25;;;;;;;4.90;1.50;;;24.10;88.30;;;25.15;58.38;101255.00;5185629;28;20050;-60
2022/07/14 09:48:03;;;;;;;3.90;1.50;;;24.20;88.00;;;25.29;57.54;101257.41;5185785;28;20070;-61
2022/07/14 09:50:42;;;;;;;2.75;1.30;;;24.30;86.90;;;25.42;56.72;101253.59;5185743;28;20042;-62
2022/07/14 09:53:23;;;;;;;2.92;1.52;;;24.40;86.00;;;25.57;56.53;101262.25;5185740;28;20052;-61
2022/07/14 09:55:59;;;;;;;7.15;1.73;;;24.50;85.70;;;25.74;56.14;101259.25;5185599;28;20042;-61
2022/07/14 09:58:36;;;;;;;3.88;1.40;;;24.70;85.00;;;25.94;55.52;101249.03;5185302;28;20042;-62
2022/07/14 10:01:11;;;;;;;6.93;1.92;;;24.90;84.10;;;26.07;54.78;101247.84;5185352;28;20454;-61
2022/07/14 10:03:47;;;;;;;8.15;1.70;;;25.00;82.90;;;25.99;54.07;101249.81;5184247;28;20045;-61
2022/07/14 10:06:21;;;;;;;5.72;1.38;;;25.00;81.70;;;25.92;53.37;101254.41;5185139;28;20052;-72
2022/07/14 10:08:57;;;;;;;;;;;24.90;80.30;;;25.98;52.09;101248.06;5185646;28;20092;-72
2022/07/14 10:11:31;;;;;;;5.15;1.70;;;25.00;79.10;;;26.07;50.85;101258.53;5185226;28;20020;-54
2022/07/14 10:14:04;;;;;;;3.63;1.50;;;25.10;77.50;;;26.15;51.08;101253.03;5185615;28;20049;-54
2022/07/14 10:16:36;;;;;;;3.38;1.02;;;25.20;77.00;;;26.18;50.70;101251.16;5185265;28;20771;-55
2022/07/14 10:19:08;;;;;;;2.60;1.30;;;25.20;76.50;;;26.14;50.23;101246.78;5185064;28;20519;-53
2022/07/14 10:21:43;;;;;;;5.20;1.50;;;25.20;75.50;;;25.97;47.73;101254.31;5174680;28;20046;-54
2022/07/14 10:24:17;;;;;;;3.72;1.30;;;25.10;72.30;;;25.89;47.49;101253.59;5176769;28;20111;-54
2022/07/14 10:26:53;;;;;;;3.38;1.17;;;25.10;71.30;;;25.88;46.51;101259.81;5185096;28;20511;-54
2022/07/14 10:29:25;;;;;;;2.50;1.17;;;25.00;69.70;;;25.95;46.40;101257.03;5171330;28;20039;-54
2022/07/14 10:32:22;;;;;;;3.67;1.20;;;25.10;69.90;;;26.08;46.10;101267.41;5156891;28;20047;-54
2022/07/14 10:35:04;;;;;;;15.00;8.50;;;25.20;69.10;;;26.19;44.38;101271.59;5160455;28;20101;-55
2022/07/14 10:37:54;;;;;;;11.43;5.15;;;25.20;66.90;;;26.23;43.55;101265.28;5164470;28;20054;-54
2022/07/14 10:40:39;;;;;;;8.45;3.65;;;25.30;65.40;;;26.27;44.12;101246.50;5164783;28;20463;-53
2022/07/14 10:43:17;;;;;;;6.55;2.10;;;25.40;65.70;;;26.49;43.95;101245.16;5164911;28;20085;-53
2022/07/14 10:45:50;;;;;;;3.88;1.40;;;25.50;65.80;;;26.70;43.41;101241.94;5164767;28;20124;-56
2022/07/14 10:48:30;;;;;;;4.22;1.20;;;25.70;65.20;;;26.71;43.75;101251.72;5164608;28;20057;-54
2022/07/14 10:51:21;;;;;;;3.58;1.30;;;25.70;65.00;;;26.59;42.46;101252.00;5164584;28;20074;-53
2022/07/14 10:54:11;;;;;;;3.65;1.00;;;25.70;63.40;;;26.61;42.18;101249.31;5164801;28;20050;-54